Forside
METAR-TAF:

METAR-TAF

Lufthavne :

Brooks Field

Marshall, Michigan, USA

Breddekreds: 42-15-04N, længdekreds: 084-57-20W, højde: 287 m

Aktuelle vejr

Denne rapport blev lavet for 18 minutter siden, kl. 18:15 UTC
Vind 9 kt fra sydsydvest med vindstød på up til 15 kt
Temperatur 8°C
Fugtighed 46%
Tryk 1013 hPa
Sigt: 16.1 km
skyfri

METAR: KRMY 231815Z AUTO 20009G15KT 10SM CLR 08/M03 A2992 RMK AO2 T00831028

Tid: 13:33 (18:33 UTC)


TAF: fraværende

Vejrobservationer og prognoser fra mere end 4000 lufthavne (METAR og TAF).

De gule og røde prikker repræsenterer de meteorologiske stationer.

Flyt musen over at se navnet på stationen.

Så klik over at se vejr observationer og prognoser.

At skifte det kort: Klik på de grønne knapper med et sort kors for at zoome ind; på den grønne knap med en bindestreg for at zoome ud; eller på de grønne pile for tilstødende kort.


METAR-TAF: